Time;durP1;ratioP1;P1;durP2;ratioP2;P2;SDS_P1;SDS_P2;PMS_P1;PMS_P2;Temp;Humidity;BMP_temperature;BMP_pressure;BME280_temperature;BME280_humidity;BME280_pressure;Samples;Min_cycle;Max_cycle;Signal;HPM_P1;HPM_P2
2023/02/25 05:32:13;;;;;;;12.25;5.38;;;7.60;76.70;;;;;;6119788;23;20032;-75
2023/02/25 05:34:40;;;;;;;12.32;5.03;;;7.60;76.30;;;;;;6101226;23;20470;-75
2023/02/25 05:37:06;;;;;;;10.05;5.22;;;7.60;76.20;;;;;;6128570;23;20002;-76
2023/02/25 05:39:32;;;;;;;7.90;4.32;;;7.60;76.10;;;;;;6102400;23;20002;-75
2023/02/25 05:41:57;;;;;;;12.98;5.63;;;7.70;76.10;;;;;;6128581;23;20312;-75
2023/02/25 05:44:23;;;;;;;10.35;5.13;;;7.60;76.10;;;;;;6102206;23;20006;-75
2023/02/25 05:46:49;;;;;;;7.47;4.72;;;7.60;76.20;;;;;;6102441;23;20017;-75
2023/02/25 05:49:15;;;;;;;7.47;4.60;;;7.60;76.00;;;;;;6102683;23;20006;-75
2023/02/25 05:51:40;;;;;;;8.27;5.13;;;7.60;76.10;;;;;;6129484;23;20002;-75
2023/02/25 05:54:06;;;;;;;9.77;3.92;;;7.60;75.90;;;;;;6131763;23;20092;-75
2023/02/25 05:56:31;;;;;;;6.65;4.47;;;7.60;76.10;;;;;;6105812;23;20017;-76
2023/02/25 05:58:58;;;;;;;8.20;4.07;;;7.60;76.10;;;;;;6131574;23;20017;-75
2023/02/25 06:01:29;;;;;;;6.90;3.70;;;7.70;76.10;;;;;;6104451;23;20123;-75
2023/02/25 06:03:57;;;;;;;8.18;4.05;;;7.70;75.90;;;;;;6130665;23;20077;-75
2023/02/25 06:06:25;;;;;;;9.75;4.03;;;7.70;76.00;;;;;;6131808;23;20026;-75
2023/02/25 06:08:51;;;;;;;7.00;4.00;;;7.70;75.90;;;;;;6105985;23;20038;-75
2023/02/25 06:11:22;;;;;;;12.75;5.50;;;7.70;75.90;;;;;;6132213;23;20085;-75
2023/02/25 06:13:50;;;;;;;9.63;4.43;;;7.60;75.90;;;;;;6131257;23;20006;-75
2023/02/25 06:16:17;;;;;;;6.35;4.28;;;7.70;75.90;;;;;;6131981;23;20026;-75
2023/02/25 06:18:42;;;;;;;9.55;4.85;;;7.70;75.80;;;;;;6132187;23;20006;-75
2023/02/25 06:21:10;;;;;;;10.15;4.95;;;7.70;75.70;;;;;;6132015;23;20013;-75
2023/02/25 06:23:38;;;;;;;7.82;3.75;;;7.60;75.80;;;;;;6131704;23;20017;-75
2023/02/25 06:26:06;;;;;;;6.68;4.88;;;7.60;75.70;;;;;;6131840;23;19998;-75
2023/02/25 06:28:32;;;;;;;7.72;3.78;;;7.60;75.60;;;;;;6131788;23;20077;-75
2023/02/25 06:30:58;;;;;;;7.05;4.75;;;7.60;75.50;;;;;;6131656;23;20037;-75
2023/02/25 06:33:24;;;;;;;9.48;4.30;;;7.60;75.40;;;;;;6132032;23;20025;-75
2023/02/25 06:35:51;;;;;;;7.00;3.65;;;7.60;75.50;;;;;;6131672;23;20002;-75
2023/02/25 06:38:17;;;;;;;7.20;3.47;;;7.60;75.40;;;;;;6132020;23;20790;-76
2023/02/25 06:40:43;;;;;;;17.88;8.20;;;7.60;75.00;;;;;;6105624;23;20010;-75
2023/02/25 06:43:08;;;;;;;18.23;12.23;;;7.50;75.20;;;;;;6131995;23;20033;-75
2023/02/25 06:45:35;;;;;;;10.95;6.60;;;7.50;75.10;;;;;;6131594;23;20009;-75
2023/02/25 06:48:00;;;;;;;7.53;4.55;;;7.50;74.50;;;;;;6131336;23;20002;-75
2023/02/25 06:50:26;;;;;;;6.53;3.42;;;7.50;74.70;;;;;;6131781;23;20002;-75
2023/02/25 06:52:52;;;;;;;6.55;3.38;;;7.50;74.40;;;;;;6131657;23;20461;-75
2023/02/25 06:55:18;;;;;;;6.68;3.60;;;7.50;74.20;;;;;;6132219;23;20316;-75
2023/02/25 06:57:43;;;;;;;8.20;3.15;;;7.50;73.70;;;;;;6131705;23;20037;-75
2023/02/25 07:00:10;;;;;;;7.32;4.03;;;7.50;74.00;;;;;;6131765;23;20013;-75
2023/02/25 07:02:36;;;;;;;4.00;2.78;;;7.50;73.70;;;;;;6131246;23;20005;-78
2023/02/25 07:05:02;;;;;;;10.32;5.05;;;7.50;73.70;;;;;;6130050;23;20013;-80
2023/02/25 07:07:28;;;;;;;9.52;4.80;;;7.50;73.50;;;;;;6130669;23;20002;-78
2023/02/25 07:09:53;;;;;;;9.00;5.72;;;7.50;73.60;;;;;;6130195;23;20005;-77
2023/02/25 07:12:19;;;;;;;6.32;3.47;;;7.50;73.30;;;;;;6130581;23;20002;-78
2023/02/25 07:14:45;;;;;;;7.38;4.18;;;7.50;73.30;;;;;;6129672;23;19998;-78
2023/02/25 07:17:11;;;;;;;7.60;4.82;;;7.50;73.00;;;;;;6103848;23;20014;-79
2023/02/25 07:19:36;;;;;;;11.00;6.40;;;7.50;73.30;;;;;;6130194;23;20010;-78
2023/02/25 07:22:02;;;;;;;6.35;3.92;;;7.50;73.00;;;;;;6130061;23;20080;-77
2023/02/25 07:24:28;;;;;;;5.88;3.63;;;7.50;73.20;;;;;;6130155;23;20401;-81
2023/02/25 07:26:54;;;;;;;6.50;2.75;;;7.50;73.10;;;;;;6129754;23;20002;-78
2023/02/25 07:29:20;;;;;;;3.88;2.72;;;7.50;73.20;;;;;;6104069;23;20014;-86
2023/02/25 07:31:46;;;;;;;6.18;3.30;;;7.60;73.20;;;;;;6129669;23;20022;-77
2023/02/25 07:34:13;;;;;;;4.53;3.40;;;7.60;73.10;;;;;;6130184;23;20744;-80
2023/02/25 07:36:39;;;;;;;10.13;3.30;;;7.70;72.90;;;;;;6104664;23;20141;-87
2023/02/25 07:39:07;;;;;;;6.95;3.97;;;7.70;72.80;;;;;;6130141;23;20395;-78
2023/02/25 07:41:34;;;;;;;6.07;3.05;;;7.70;72.70;;;;;;6099474;23;20032;-79
2023/02/25 07:44:00;;;;;;;7.10;3.33;;;7.70;72.80;;;;;;6128373;23;20012;-81
2023/02/25 07:46:26;;;;;;;4.75;3.20;;;7.70;72.50;;;;;;6127810;23;20018;-80
2023/02/25 07:48:51;;;;;;;9.02;3.05;;;7.70;72.70;;;;;;6129908;23;20056;-80
2023/02/25 07:51:22;;;;;;;4.45;2.45;;;7.70;72.70;;;;;;6128873;23;20010;-80
2023/02/25 07:53:49;;;;;;;5.15;2.50;;;7.70;72.80;;;;;;6128943;23;20343;-84
2023/02/25 07:56:17;;;;;;;4.57;3.00;;;7.70;72.40;;;;;;6102953;23;20014;-84
2023/02/25 07:58:43;;;;;;;7.93;4.00;;;7.80;72.00;;;;;;6129292;23;20002;-84
2023/02/25 08:01:10;;;;;;;7.60;3.25;;;7.80;71.90;;;;;;6102491;23;20009;-84
2023/02/25 08:03:37;;;;;;;5.25;3.15;;;7.80;71.80;;;;;;6102317;23;20013;-84
2023/02/25 08:06:07;;;;;;;6.35;3.17;;;7.70;72.00;;;;;;6128387;23;20005;-84
2023/02/25 08:08:36;;;;;;;;;;;7.80;72.00;;;;;;6124825;23;20436;-83
2023/02/25 08:11:10;;;;;;;4.60;2.97;;;7.90;71.70;;;;;;6128422;23;20223;-83
2023/02/25 08:13:36;;;;;;;3.17;2.55;;;7.90;71.30;;;;;;6120476;23;20013;-84
2023/02/25 08:16:08;;;;;;;7.88;2.58;;;7.90;71.40;;;;;;6124093;23;20016;-84
2023/02/25 08:18:34;;;;;;;6.90;3.03;;;7.90;71.40;;;;;;6100053;23;20034;-83
2023/02/25 08:21:00;;;;;;;6.40;3.35;;;7.90;71.20;;;;;;6101561;23;20013;-79
2023/02/25 08:23:26;;;;;;;5.97;3.00;;;7.90;71.30;;;;;;6127715;23;20033;-84
2023/02/25 08:25:55;;;;;;;5.82;2.65;;;8.00;71.10;;;;;;6127589;23;20518;-80
2023/02/25 08:28:22;;;;;;;7.68;2.85;;;8.00;71.10;;;;;;6127702;23;20054;-83
2023/02/25 08:30:48;;;;;;;6.15;2.50;;;8.00;70.90;;;;;;6104693;23;20073;-84
2023/02/25 08:33:14;;;;;;;6.75;2.78;;;8.00;70.90;;;;;;6126268;23;20013;-84
2023/02/25 08:35:40;;;;;;;5.35;3.33;;;8.10;70.50;;;;;;6127801;23;20002;-84
2023/02/25 08:38:05;;;;;;;5.22;2.25;;;8.20;70.40;;;;;;6127075;23;20482;-84
2023/02/25 08:40:31;;;;;;;4.80;2.08;;;8.10;70.40;;;;;;6128402;23;20010;-85
2023/02/25 08:42:57;;;;;;;6.15;2.38;;;8.20;70.40;;;;;;6126888;23;20037;-85
2023/02/25 08:45:23;;;;;;;6.78;3.25;;;8.20;70.20;;;;;;6126439;23;20044;-84
2023/02/25 08:47:48;;;;;;;7.78;2.75;;;8.20;70.10;;;;;;6129203;23;20483;-84
2023/02/25 08:50:16;;;;;;;5.50;2.60;;;8.30;70.00;;;;;;6128542;23;20026;-84
2023/02/25 08:52:42;;;;;;;4.88;2.70;;;8.30;69.20;;;;;;6127370;23;20086;-84
2023/02/25 08:55:08;;;;;;;3.67;2.33;;;8.40;69.30;;;;;;6124393;23;20057;-84
2023/02/25 08:57:34;;;;;;;6.80;2.90;;;8.60;69.00;;;;;;6127424;23;20476;-84
2023/02/25 08:59:59;;;;;;;5.63;2.72;;;8.60;68.30;;;;;;6128786;23;20033;-84
2023/02/25 09:02:25;;;;;;;8.05;2.63;;;8.70;68.20;;;;;;6126353;23;20014;-84
2023/02/25 09:04:51;;;;;;;6.25;3.30;;;8.70;67.10;;;;;;6128041;23;20022;-84
2023/02/25 09:07:17;;;;;;;9.02;2.90;;;8.90;67.00;;;;;;6126530;23;20014;-84
2023/02/25 09:09:42;;;;;;;4.15;2.28;;;9.10;66.70;;;;;;6111897;23;20008;-82
2023/02/25 09:12:09;;;;;;;3.83;3.03;;;9.40;65.80;;;;;;6128398;23;20061;-88
2023/02/25 09:14:35;;;;;;;5.40;2.42;;;10.00;64.20;;;;;;6127155;23;20009;-83
2023/02/25 09:17:05;;;;;;;7.90;2.70;;;10.70;62.00;;;;;;6128732;23;20002;-81
2023/02/25 09:19:31;;;;;;;6.85;4.18;;;10.90;59.90;;;;;;6128258;23;20010;-81
2023/02/25 09:21:57;;;;;;;5.45;3.67;;;11.00;60.00;;;;;;6126049;23;20009;-81
2023/02/25 09:24:23;;;;;;;8.27;4.03;;;11.30;59.70;;;;;;6126048;23;20009;-82
2023/02/25 09:26:49;;;;;;;10.02;4.03;;;12.20;57.10;;;;;;6127891;23;20001;-82
2023/02/25 09:29:15;;;;;;;4.22;2.47;;;13.20;55.10;;;;;;6127463;23;20009;-82
2023/02/25 09:31:40;;;;;;;8.75;3.25;;;13.60;51.80;;;;;;6127364;23;20010;-86
2023/02/25 09:34:08;;;;;;;7.43;3.83;;;14.30;51.50;;;;;;6102570;23;20013;-85
2023/02/25 09:36:34;;;;;;;5.43;3.45;;;14.80;48.70;;;;;;6126630;23;20013;-85
2023/02/25 09:39:01;;;;;;;9.80;3.13;;;15.40;48.00;;;;;;6127945;23;20018;-85
2023/02/25 09:41:36;;;;;;;5.15;3.13;;;15.80;46.70;;;;;;6128584;23;20078;-85
2023/02/25 09:44:13;;;;;;;7.72;4.00;;;16.50;45.60;;;;;;6113627;23;20447;-85
2023/02/25 09:46:51;;;;;;;6.82;2.90;;;16.90;44.00;;;;;;6128007;23;20061;-85
2023/02/25 09:49:40;;;;;;;6.70;2.92;;;17.10;42.40;;;;;;6128350;23;20145;-85
2023/02/25 09:52:30;;;;;;;6.90;2.95;;;16.60;42.60;;;;;;6104854;23;20505;-79
2023/02/25 09:55:22;;;;;;;6.13;2.75;;;16.80;41.20;;;;;;6123387;23;20078;-79
2023/02/25 09:58:13;;;;;;;6.47;3.25;;;16.60;42.70;;;;;;6128411;23;20012;-80
2023/02/25 10:00:48;;;;;;;4.40;2.17;;;16.30;42.50;;;;;;6127565;23;20391;-80
2023/02/25 10:03:24;;;;;;;4.35;2.40;;;16.60;43.30;;;;;;6128533;23;20026;-79
2023/02/25 10:05:59;;;;;;;4.47;2.20;;;16.50;42.80;;;;;;6128306;23;20012;-79
2023/02/25 10:08:34;;;;;;;3.75;1.92;;;16.10;43.90;;;;;;6127876;23;20010;-79
2023/02/25 10:11:08;;;;;;;2.95;2.35;;;16.10;43.30;;;;;;6128252;23;20029;-82
2023/02/25 10:13:53;;;;;;;4.90;1.90;;;16.30;42.90;;;;;;6102485;23;20386;-81
2023/02/25 10:16:30;;;;;;;5.68;1.65;;;16.20;42.60;;;;;;6128241;23;20080;-80
2023/02/25 10:19:16;;;;;;;5.18;1.65;;;15.90;43.10;;;;;;6101528;23;20116;-80
2023/02/25 10:22:15;;;;;;;3.47;1.48;;;15.40;43.10;;;;;;6128009;23;20009;-80
2023/02/25 10:24:56;;;;;;;6.18;1.60;;;15.00;43.30;;;;;;6127969;23;20398;-80
2023/02/25 10:27:32;;;;;;;3.15;1.42;;;14.20;45.30;;;;;;6127988;23;20006;-80
2023/02/25 10:30:11;;;;;;;3.22;1.48;;;14.20;45.80;;;;;;6102086;23;20089;-80
2023/02/25 10:32:40;;;;;;;3.20;1.03;;;13.40;46.80;;;;;;6102269;23;20017;-80
2023/02/25 10:35:16;;;;;;;4.38;1.52;;;13.50;46.60;;;;;;6128237;23;20013;-80
2023/02/25 10:37:42;;;;;;;7.50;2.17;;;13.50;47.00;;;;;;6101747;23;20013;-81
2023/02/25 10:40:14;;;;;;;6.82;1.52;;;13.50;47.70;;;;;;6129761;23;20006;-83
2023/02/25 10:42:44;;;;;;;9.05;2.13;;;13.40;47.10;;;;;;6130199;23;20010;-76
2023/02/25 10:45:13;;;;;;;3.13;1.63;;;13.20;47.40;;;;;;6104597;23;20005;-78
2023/02/25 10:47:41;;;;;;;4.87;1.43;;;13.10;49.00;;;;;;6129265;23;20508;-78
2023/02/25 10:50:16;;;;;;;4.90;1.38;;;13.00;47.50;;;;;;6104256;23;20230;-84
2023/02/25 10:53:12;;;;;;;2.90;2.10;;;12.90;47.70;;;;;;6103828;23;20005;-85
2023/02/25 10:55:53;;;;;;;8.60;2.42;;;12.70;47.70;;;;;;6128008;23;20010;-86
2023/02/25 10:58:25;;;;;;;7.30;3.05;;;12.20;49.30;;;;;;6104469;23;20031;-80
2023/02/25 11:00:58;;;;;;;7.10;1.63;;;11.80;50.30;;;;;;6130529;23;20014;-78
2023/02/25 11:03:27;;;;;;;7.15;1.83;;;11.60;50.80;;;;;;6121320;23;20006;-82
2023/02/25 11:06:09;;;;;;;4.07;1.58;;;11.30;49.90;;;;;;6129261;23;20041;-81
2023/02/25 11:08:35;;;;;;;6.43;1.85;;;11.20;50.50;;;;;;6129187;23;20478;-79
2023/02/25 11:11:14;;;;;;;4.90;2.10;;;11.20;51.60;;;;;;6127237;23;20324;-81
2023/02/25 11:13:40;;;;;;;3.25;1.70;;;11.30;51.80;;;;;;6103627;23;20442;-77
2023/02/25 11:16:09;;;;;;;5.80;2.30;;;11.20;51.20;;;;;;6128562;23;20014;-84
2023/02/25 11:18:37;;;;;;;7.68;3.60;;;11.20;51.00;;;;;;6128688;23;20006;-76
2023/02/25 11:21:06;;;;;;;10.73;4.80;;;11.00;51.00;;;;;;6129640;23;20012;-80
2023/02/25 11:23:47;;;;;;;1.95;1.50;;;10.90;51.70;;;;;;6128226;23;20030;-82
2023/02/25 11:26:33;;;;;;;2.42;2.10;;;10.70;52.00;;;;;;6102528;23;20013;-78
2023/02/25 11:29:05;;;;;;;8.90;2.85;;;10.90;52.40;;;;;;6129410;23;20350;-84
2023/02/25 11:31:36;;;;;;;3.75;2.03;;;11.00;51.90;;;;;;6129152;23;20037;-80
2023/02/25 11:34:11;;;;;;;4.50;1.83;;;10.90;51.90;;;;;;6128173;23;20026;-87
2023/02/25 11:36:38;;;;;;;3.08;1.83;;;10.70;52.10;;;;;;6120670;23;20046;-82
2023/02/25 11:39:13;;;;;;;5.65;2.60;;;10.80;51.30;;;;;;6103340;23;20387;-82
2023/02/25 11:41:39;;;;;;;6.53;3.05;;;10.80;50.50;;;;;;6103825;23;20009;-81
2023/02/25 11:44:22;;;;;;;6.57;1.73;;;10.80;50.10;;;;;;6130276;23;20029;-82
2023/02/25 11:46:53;;;;;;;3.83;1.33;;;10.80;50.30;;;;;;6130138;23;20010;-79
2023/02/25 11:49:40;;;;;;;6.28;2.10;;;10.70;49.90;;;;;;6121107;23;20002;-82
2023/02/25 11:52:16;;;;;;;4.28;1.55;;;10.70;51.20;;;;;;6133234;23;19998;-88
2023/02/25 11:54:51;;;;;;;3.50;2.33;;;10.70;51.20;;;;;;6130952;23;20026;-81
2023/02/25 11:58:05;;;;;;;8.05;3.60;;;10.80;51.60;;;;;;6130293;23;20505;-83
2023/02/25 12:00:45;;;;;;;5.45;2.22;;;10.80;51.90;;;;;;6065923;23;20010;-79
2023/02/25 12:03:45;;;;;;;6.30;2.83;;;10.90;52.40;;;;;;6129651;23;20009;-79
2023/02/25 12:06:22;;;;;;;8.85;2.08;;;11.10;52.70;;;;;;6129622;23;20062;-82
2023/02/25 12:08:55;;;;;;;3.25;1.70;;;11.20;52.20;;;;;;6129670;23;20009;-82
2023/02/25 12:11:49;;;;;;;2.40;1.73;;;11.20;52.30;;;;;;6124240;23;20008;-82
2023/02/25 12:14:33;;;;;;;1.95;1.40;;;11.10;52.40;;;;;;6128782;23;20406;-77
2023/02/25 12:17:34;;;;;;;3.35;1.20;;;11.20;51.70;;;;;;6103399;23;20006;-79
2023/02/25 12:20:24;;;;;;;3.15;1.50;;;11.20;51.80;;;;;;6110111;23;20009;-83
2023/02/25 12:23:11;;;;;;;5.38;1.73;;;11.30;50.70;;;;;;6124741;23;20010;-87
2023/02/25 12:25:44;;;;;;;5.57;1.60;;;11.20;50.10;;;;;;6115039;23;20029;-79
2023/02/25 12:28:40;;;;;;;8.98;2.08;;;11.30;49.60;;;;;;6126523;23;20123;-85
2023/02/25 12:31:40;;;;;;;2.80;1.80;;;11.30;50.30;;;;;;6073388;23;20618;-83
2023/02/25 12:34:40;;;;;;;1.92;1.50;;;11.40;50.30;;;;;;6124830;23;20068;-83
2023/02/25 12:37:44;;;;;;;5.65;1.30;;;11.30;50.00;;;;;;6119599;23;20013;-83
2023/02/25 12:40:38;;;;;;;2.63;1.20;;;11.10;50.40;;;;;;6073366;23;20077;-83
2023/02/25 12:43:33;;;;;;;9.07;1.60;;;11.30;50.40;;;;;;6127805;23;20077;-84
2023/02/25 12:46:14;;;;;;;2.17;1.98;;;11.70;50.20;;;;;;6127800;23;20006;-83
2023/02/25 12:48:43;;;;;;;5.43;1.48;;;11.80;49.90;;;;;;6092614;23;20025;-83
2023/02/25 12:51:31;;;;;;;4.37;1.57;;;11.60;48.70;;;;;;6127922;23;20052;-83
2023/02/25 12:54:21;;;;;;;2.55;1.20;;;11.50;49.40;;;;;;6101354;23;20093;-83
2023/02/25 12:57:14;;;;;;;4.57;1.20;;;11.30;48.60;;;;;;6102015;23;20016;-81
2023/02/25 13:00:08;;;;;;;4.57;1.50;;;11.00;49.20;;;;;;6120534;23;20457;-83
2023/02/25 13:02:43;;;;;;;6.45;1.60;;;10.90;50.20;;;;;;6126069;23;20006;-82
2023/02/25 13:05:21;;;;;;;4.32;1.42;;;10.90;50.20;;;;;;6127342;23;20029;-83
2023/02/25 13:08:14;;;;;;;3.85;1.70;;;11.00;50.40;;;;;;6101751;23;20002;-83
2023/02/25 13:10:53;;;;;;;5.82;1.55;;;10.90;50.60;;;;;;6101690;23;20013;-83
2023/02/25 13:13:18;;;;;;;3.83;1.80;;;10.90;51.30;;;;;;6093421;23;20006;-84
2023/02/25 13:16:13;;;;;;;1.35;1.13;;;11.00;51.20;;;;;;6101992;23;20016;-81
2023/02/25 13:18:57;;;;;;;4.45;1.75;;;11.20;51.10;;;;;;6100980;23;20014;-80
2023/02/25 13:21:55;;;;;;;5.30;2.25;;;11.30;51.40;;;;;;6126155;23;20006;-81
2023/02/25 13:24:39;;;;;;;5.40;1.85;;;11.30;49.60;;;;;;6029832;23;20450;-81
2023/02/25 13:27:11;;;;;;;4.50;1.67;;;11.20;49.20;;;;;;6124828;23;20010;-81
2023/02/25 13:29:58;;;;;;;4.75;1.50;;;11.30;48.50;;;;;;6127923;23;20473;-81
2023/02/25 13:32:56;;;;;;;3.72;1.70;;;11.20;49.30;;;;;;6118641;23;20021;-82
2023/02/25 13:35:50;;;;;;;6.50;1.42;;;11.20;49.30;;;;;;6128199;23;20073;-81
2023/02/25 13:38:29;;;;;;;3.30;1.95;;;11.10;48.80;;;;;;6126693;23;20010;-82
2023/02/25 13:41:04;;;;;;;3.10;1.25;;;11.00;49.60;;;;;;6125693;23;20005;-82
2023/02/25 13:43:56;;;;;;;2.95;1.30;;;10.80;49.50;;;;;;6127736;23;20033;-82
2023/02/25 13:46:57;;;;;;;3.33;1.58;;;10.90;50.00;;;;;;6125533;23;20006;-82
2023/02/25 13:49:28;;;;;;;6.50;1.42;;;10.80;50.50;;;;;;6127962;23;19998;-81
2023/02/25 13:52:12;;;;;;;4.72;1.83;;;10.90;50.60;;;;;;6125269;23;19998;-82
2023/02/25 13:54:43;;;;;;;2.63;1.40;;;10.80;51.00;;;;;;6127758;23;20013;-82
2023/02/25 13:57:28;;;;;;;3.95;1.65;;;10.70;50.60;;;;;;6125955;23;20553;-82
2023/02/25 14:00:07;;;;;;;2.92;1.45;;;10.70;51.40;;;;;;6125403;23;20006;-82
2023/02/25 14:02:45;;;;;;;3.58;1.80;;;10.80;51.30;;;;;;6126387;23;20474;-82
2023/02/25 14:05:34;;;;;;;4.28;1.88;;;10.70;51.30;;;;;;6124473;23;20006;-81
2023/02/25 14:08:24;;;;;;;3.47;1.50;;;10.70;51.80;;;;;;6124302;23;20403;-81
2023/02/25 14:11:12;;;;;;;4.07;1.80;;;10.70;52.10;;;;;;6127413;23;20005;-81
2023/02/25 14:13:58;;;;;;;7.30;2.22;;;10.80;51.50;;;;;;6128004;23;19998;-81
2023/02/25 14:16:40;;;;;;;4.60;1.70;;;11.00;51.10;;;;;;6121529;23;20027;-81
2023/02/25 14:19:20;;;;;;;2.40;1.60;;;11.20;51.10;;;;;;6128796;23;20005;-81
2023/02/25 14:21:49;;;;;;;5.47;1.70;;;11.30;51.00;;;;;;6128428;23;20037;-82
2023/02/25 14:24:22;;;;;;;5.20;1.48;;;11.30;50.40;;;;;;6127865;23;20076;-77
2023/02/25 14:27:12;;;;;;;4.13;1.35;;;11.30;50.10;;;;;;6128405;23;20006;-81
2023/02/25 14:30:02;;;;;;;3.28;1.60;;;11.20;50.00;;;;;;6126654;23;20005;-81
2023/02/25 14:33:03;;;;;;;4.63;1.40;;;11.00;49.30;;;;;;6128759;23;20014;-82
2023/02/25 14:35:44;;;;;;;5.70;1.55;;;10.70;49.20;;;;;;6104399;23;20002;-84
2023/02/25 14:38:35;;;;;;;3.33;1.55;;;10.70;49.60;;;;;;6129667;23;20599;-81
2023/02/25 14:41:20;;;;;;;4.35;2.30;;;10.50;49.30;;;;;;6126466;23;19998;-82
2023/02/25 14:43:48;;;;;;;5.18;2.15;;;10.40;50.40;;;;;;6128523;23;19998;-82
2023/02/25 14:46:33;;;;;;;4.82;3.00;;;10.30;50.40;;;;;;6102687;23;20077;-82
2023/02/25 14:49:28;;;;;;;2.50;1.92;;;10.20;51.20;;;;;;6103176;23;20082;-82
2023/02/25 14:52:25;;;;;;;5.35;2.10;;;10.20;51.10;;;;;;6101720;23;20092;-83
2023/02/25 14:55:12;;;;;;;3.55;2.00;;;10.30;51.30;;;;;;6129470;23;20022;-82
2023/02/25 14:57:41;;;;;;;4.05;1.85;;;10.40;51.50;;;;;;6128941;23;20378;-82
2023/02/25 15:00:26;;;;;;;2.65;1.70;;;10.30;51.30;;;;;;6128416;23;20465;-82
2023/02/25 15:03:13;;;;;;;4.88;2.30;;;10.30;51.40;;;;;;6129055;23;20002;-82
2023/02/25 15:06:07;;;;;;;4.03;2.10;;;10.20;52.00;;;;;;6103034;23;20089;-82
2023/02/25 15:08:50;;;;;;;3.63;1.65;;;10.00;52.60;;;;;;6128430;23;20053;-82
2023/02/25 15:11:30;;;;;;;6.75;1.70;;;10.00;52.80;;;;;;6128466;23;20002;-83
2023/02/25 15:13:56;;;;;;;;;;;10.00;52.70;;;;;;6129208;23;20002;-83
2023/02/25 15:16:48;;;;;;;4.07;2.10;;;10.10;53.10;;;;;;6129536;23;19901;-83
2023/02/25 15:19:50;;;;;;;4.75;2.40;;;10.10;52.70;;;;;;6129169;23;20061;-83
2023/02/25 15:22:20;;;;;;;6.00;2.58;;;10.00;52.70;;;;;;6128446;23;20368;-83
2023/02/25 15:24:47;;;;;;;8.52;2.95;;;9.80;53.50;;;;;;6102394;23;20024;-82
2023/02/25 15:27:34;;;;;;;5.05;2.70;;;9.70;54.00;;;;;;6129101;23;20006;-82
2023/02/25 15:30:01;;;;;;;7.38;2.50;;;9.80;54.00;;;;;;6102708;23;20363;-82
2023/02/25 15:32:29;;;;;;;5.57;2.90;;;9.80;53.40;;;;;;6128880;23;20106;-82
2023/02/25 15:35:04;;;;;;;7.82;2.47;;;9.70;53.70;;;;;;6128570;23;20006;-82
2023/02/25 15:37:33;;;;;;;6.53;2.97;;;9.80;53.80;;;;;;6119904;23;20013;-83
2023/02/25 15:40:13;;;;;;;3.92;2.30;;;9.90;53.80;;;;;;6102642;23;20085;-82
2023/02/25 15:42:58;;;;;;;6.03;3.15;;;10.00;53.70;;;;;;6122044;23;20037;-82
2023/02/25 15:45:26;;;;;;;3.42;2.30;;;10.10;53.50;;;;;;6102134;23;20009;-82
2023/02/25 15:48:10;;;;;;;4.15;2.35;;;10.20;53.40;;;;;;6125109;23;20353;-82
2023/02/25 15:50:56;;;;;;;6.75;3.10;;;10.20;53.50;;;;;;6126002;23;20371;-81
2023/02/25 15:53:24;;;;;;;8.35;3.00;;;10.20;53.60;;;;;;6128855;23;20005;-81
2023/02/25 15:55:52;;;;;;;5.63;2.55;;;10.20;53.70;;;;;;6099686;23;20010;-81
2023/02/25 15:58:24;;;;;;;4.45;2.88;;;10.00;53.10;;;;;;6129468;23;20002;-81
2023/02/25 16:00:57;;;;;;;3.85;2.75;;;10.00;53.90;;;;;;6128540;23;20033;-81
2023/02/25 16:03:27;;;;;;;6.50;2.67;;;10.10;54.00;;;;;;6128790;23;20006;-81
2023/02/25 16:05:57;;;;;;;7.38;3.08;;;10.20;54.60;;;;;;6124523;23;20009;-81
2023/02/25 16:08:29;;;;;;;5.07;3.45;;;10.10;54.20;;;;;;6129161;23;20030;-82
2023/02/25 16:10:56;;;;;;;4.97;2.58;;;10.10;54.10;;;;;;6128799;23;20002;-81
2023/02/25 16:13:36;;;;;;;3.85;2.97;;;9.90;54.00;;;;;;6125071;23;20002;-82
2023/02/25 16:16:02;;;;;;;3.33;2.00;;;9.80;53.30;;;;;;6127901;23;20351;-82
2023/02/25 16:18:39;;;;;;;5.70;2.65;;;9.80;53.20;;;;;;6102532;23;20013;-81
2023/02/25 16:21:33;;;;;;;10.02;3.15;;;9.70;53.60;;;;;;6128512;23;20683;-81
2023/02/25 16:23:59;;;;;;;4.55;2.60;;;9.70;54.00;;;;;;6094951;23;20016;-81
2023/02/25 16:27:02;;;;;;;8.40;2.88;;;9.70;54.70;;;;;;6127857;23;20446;-80
2023/02/25 16:29:43;;;;;;;7.03;2.92;;;9.80;55.10;;;;;;6125405;23;20431;-80
2023/02/25 16:32:23;;;;;;;7.35;3.22;;;9.80;55.30;;;;;;6127752;23;20462;-80
2023/02/25 16:35:17;;;;;;;8.93;3.08;;;9.80;55.60;;;;;;6128628;23;20002;-80
2023/02/25 16:38:01;;;;;;;4.53;2.90;;;9.80;55.50;;;;;;6128719;23;20094;-80
2023/02/25 16:40:37;;;;;;;4.85;2.75;;;9.70;55.90;;;;;;6128415;23;19998;-81
2023/02/25 16:43:03;;;;;;;7.45;3.10;;;9.60;56.40;;;;;;6099319;23;20006;-80
2023/02/25 16:45:34;;;;;;;10.73;5.28;;;9.60;56.60;;;;;;6125051;23;20034;-81
2023/02/25 16:48:06;;;;;;;10.35;5.15;;;9.60;56.60;;;;;;6102472;23;20635;-81
2023/02/25 16:50:34;;;;;;;5.25;3.30;;;9.60;56.60;;;;;;6128565;23;20002;-81
2023/02/25 16:53:02;;;;;;;6.18;3.78;;;9.50;56.70;;;;;;6128352;23;20370;-81
2023/02/25 16:55:35;;;;;;;6.57;3.50;;;9.50;56.60;;;;;;6128911;23;20017;-81
2023/02/25 16:58:20;;;;;;;7.35;3.75;;;9.50;56.70;;;;;;6121665;23;20009;-80
2023/02/25 17:00:51;;;;;;;10.32;3.70;;;9.40;56.70;;;;;;6102893;23;20006;-81
2023/02/25 17:03:17;;;;;;;8.13;3.28;;;9.50;57.00;;;;;;6098784;23;20056;-79
2023/02/25 17:05:57;;;;;;;7.00;3.80;;;9.50;57.00;;;;;;6102483;23;20065;-79
2023/02/25 17:08:23;;;;;;;6.13;3.95;;;9.50;56.80;;;;;;6101434;23;20002;-83
2023/02/25 17:10:54;;;;;;;8.80;4.88;;;9.50;57.10;;;;;;6096759;23;20089;-79
2023/02/25 17:13:35;;;;;;;6.53;3.13;;;9.50;56.80;;;;;;6128091;23;20002;-79
2023/02/25 17:16:03;;;;;;;6.60;3.10;;;9.40;57.10;;;;;;6127425;23;20028;-79
2023/02/25 17:18:38;;;;;;;8.00;3.28;;;9.40;57.40;;;;;;6127859;23;20009;-80
2023/02/25 17:21:23;;;;;;;3.00;2.53;;;9.50;57.30;;;;;;6128921;23;20077;-80
2023/02/25 17:23:50;;;;;;;6.20;3.63;;;9.50;57.10;;;;;;6127994;23;20347;-77
2023/02/25 17:26:17;;;;;;;6.13;3.25;;;9.50;56.80;;;;;;6127505;23;20006;-77
2023/02/25 17:28:46;;;;;;;8.95;3.75;;;9.50;56.90;;;;;;6127634;23;20009;-90
2023/02/25 17:31:18;;;;;;;12.27;4.22;;;9.50;56.70;;;;;;6128298;23;20030;-80
2023/02/25 17:33:51;;;;;;;5.07;3.92;;;9.40;56.60;;;;;;6102413;23;20001;-78
2023/02/25 17:36:40;;;;;;;10.63;3.38;;;9.40;56.70;;;;;;6127574;23;20006;-81
2023/02/25 17:39:19;;;;;;;8.80;4.55;;;9.30;56.70;;;;;;6127189;23;20010;-81
2023/02/25 17:41:52;;;;;;;7.57;3.03;;;9.30;57.00;;;;;;6128543;23;20013;-83
2023/02/25 17:44:46;;;;;;;11.07;4.13;;;9.20;56.90;;;;;;6102622;23;20006;-81
2023/02/25 17:47:20;;;;;;;16.55;4.72;;;9.20;57.00;;;;;;6127012;23;20089;-86
2023/02/25 17:49:46;;;;;;;9.05;3.55;;;9.20;57.30;;;;;;6129837;23;19994;-85
2023/02/25 17:52:38;;;;;;;8.35;4.13;;;9.10;57.30;;;;;;6102742;23;20038;-79
2023/02/25 17:55:18;;;;;;;11.48;3.53;;;9.10;57.40;;;;;;6121951;23;20005;-78
2023/02/25 17:57:46;;;;;;;6.93;2.88;;;9.10;57.40;;;;;;6096439;23;20010;-85
2023/02/25 18:00:21;;;;;;;7.25;3.25;;;9.10;57.50;;;;;;6102045;23;20025;-83
2023/02/25 18:03:05;;;;;;;8.90;2.70;;;9.00;57.80;;;;;;6128211;23;20009;-78
2023/02/25 18:05:30;;;;;;;14.40;4.60;;;8.90;57.70;;;;;;6128084;23;20082;-80
2023/02/25 18:07:58;;;;;;;6.13;3.20;;;8.80;57.70;;;;;;6101897;23;20478;-83
2023/02/25 18:10:30;;;;;;;7.65;2.33;;;8.70;58.00;;;;;;6102139;23;20006;-85
2023/02/25 18:13:01;;;;;;;4.50;2.67;;;8.70;58.30;;;;;;6129662;23;20156;-82
2023/02/25 18:15:29;;;;;;;6.95;2.40;;;8.70;58.50;;;;;;6128474;23;20006;-84
2023/02/25 18:18:01;;;;;;;5.68;2.92;;;8.70;58.50;;;;;;6104789;23;20060;-87
2023/02/25 18:20:32;;;;;;;6.65;2.75;;;8.70;58.90;;;;;;6128994;23;20455;-83
2023/02/25 18:23:13;;;;;;;14.93;3.28;;;8.60;58.90;;;;;;6102018;23;20018;-82
2023/02/25 18:25:44;;;;;;;8.35;2.85;;;8.60;59.40;;;;;;6102479;23;20009;-92
2023/02/25 18:28:15;;;;;;;5.07;2.55;;;8.60;59.40;;;;;;6129410;23;20002;-83
2023/02/25 18:30:42;;;;;;;5.75;2.35;;;8.60;59.30;;;;;;6127632;23;20072;-91
2023/02/25 18:33:16;;;;;;;9.75;3.25;;;8.50;59.50;;;;;;6129208;23;20018;-86
2023/02/25 18:35:45;;;;;;;8.80;3.25;;;8.50;59.60;;;;;;6102691;23;20009;-78
2023/02/25 18:38:23;;;;;;;5.95;2.42;;;8.40;59.60;;;;;;6128509;23;20016;-85
2023/02/25 18:40:53;;;;;;;6.18;3.97;;;8.40;59.80;;;;;;6101809;23;20006;-88
2023/02/25 18:43:23;;;;;;;6.05;2.97;;;8.30;60.10;;;;;;6102822;23;20074;-81
2023/02/25 18:45:48;;;;;;;6.40;4.15;;;8.30;60.30;;;;;;6104929;23;20009;-79
2023/02/25 18:48:14;;;;;;;4.38;2.60;;;8.30;60.10;;;;;;6128350;23;20005;-83
2023/02/25 18:50:43;;;;;;;7.53;3.40;;;8.30;60.00;;;;;;6102547;23;20002;-82
2023/02/25 18:53:16;;;;;;;14.20;4.50;;;8.30;60.30;;;;;;6128125;23;20080;-75
2023/02/25 18:55:41;;;;;;;5.93;3.15;;;8.20;60.40;;;;;;6127590;23;20061;-76
2023/02/25 18:58:12;;;;;;;11.02;3.72;;;8.20;60.70;;;;;;6127867;23;20002;-76
2023/02/25 19:00:39;;;;;;;13.20;3.80;;;8.20;60.70;;;;;;6130049;23;20006;-79
2023/02/25 19:03:05;;;;;;;4.68;3.50;;;8.10;61.00;;;;;;6130269;23;20435;-78